createdAt,value
2023-05-07T00:01:36.133Z,96920.50
2023-05-07T00:04:24.684Z,96915.72
2023-05-07T00:07:13.047Z,96918.72
2023-05-07T00:10:01.377Z,96918.25
2023-05-07T00:12:49.734Z,96919.84
2023-05-07T00:15:38.122Z,96920.16
2023-05-07T00:18:27.813Z,96915.09
2023-05-07T00:21:16.265Z,96922.41
2023-05-07T00:24:04.870Z,96914.47
2023-05-07T00:26:53.790Z,96916.53
2023-05-07T00:29:42.136Z,96914.16
2023-05-07T00:32:30.504Z,96919.38
2023-05-07T00:35:20.222Z,96904.63
2023-05-07T00:38:08.594Z,96911.91
2023-05-07T00:40:57.037Z,96916.53
2023-05-07T00:43:45.965Z,96908.44
2023-05-07T00:46:35.171Z,96909.06
2023-05-07T00:49:23.813Z,96915.91
2023-05-07T00:52:16.443Z,96906.22
2023-05-07T00:55:07.929Z,96897.97
2023-05-07T00:57:56.331Z,96896.84
2023-05-07T01:00:44.818Z,96897.50
2023-05-07T01:03:33.152Z,96900.81
2023-05-07T01:06:22.772Z,96899.88
2023-05-07T01:09:12.701Z,96902.56
2023-05-07T01:12:01.307Z,96900.50
2023-05-07T01:14:50.824Z,96900.50
2023-05-07T01:17:41.529Z,96905.44
2023-05-07T01:20:35.202Z,96906.84
2023-05-07T01:23:25.653Z,96903.97
2023-05-07T01:26:14.031Z,96897.44
2023-05-07T01:29:04.303Z,96897.44
2023-05-07T01:31:53.900Z,96900.78
2023-05-07T01:34:42.623Z,96895.38
2023-05-07T01:37:31.329Z,96901.59
2023-05-07T01:40:21.426Z,96899.19
2023-05-07T01:43:10.575Z,96900.47
2023-05-07T01:46:00.169Z,96893.78
2023-05-07T01:48:49.257Z,96894.44
2023-05-07T01:51:37.911Z,96898.75
2023-05-07T01:54:28.872Z,96888.56
2023-05-07T01:57:19.673Z,96894.28
2023-05-07T02:00:10.255Z,96889.19
2023-05-07T02:03:06.644Z,96894.59
2023-05-07T02:06:02.924Z,96887.75
2023-05-07T02:08:57.198Z,96897.44
2023-05-07T02:11:45.617Z,96894.75
2023-05-07T02:14:35.948Z,96897.91
2023-05-07T02:17:24.397Z,96897.44
2023-05-07T02:20:14.500Z,96910.31
2023-05-07T02:23:03.973Z,96909.50
2023-05-07T02:25:53.145Z,96903.94
2023-05-07T02:28:41.509Z,96904.56
2023-05-07T02:31:31.334Z,96912.34
2023-05-07T02:34:20.107Z,96910.09
2023-05-07T02:37:08.489Z,96904.72
2023-05-07T02:39:57.117Z,96911.84
2023-05-07T02:42:45.498Z,96905.16
2023-05-07T02:45:34.450Z,96896.72
2023-05-07T02:48:25.452Z,96899.09
2023-05-07T02:51:13.840Z,96900.34
2023-05-07T02:54:04.216Z,96889.56
2023-05-07T02:56:54.018Z,96900.34
2023-05-07T02:59:42.356Z,96897.97
2023-05-07T03:02:30.851Z,96903.84
2023-05-07T03:05:20.640Z,96905.75
2023-05-07T03:08:09.057Z,96897.19
2023-05-07T03:10:57.446Z,96897.31
2023-05-07T03:13:46.200Z,96898.44
2023-05-07T03:16:34.608Z,96901.28
2023-05-07T03:19:22.958Z,96900.00
2023-05-07T03:22:12.622Z,96892.84
2023-05-07T03:25:01.005Z,96891.72
2023-05-07T03:27:49.292Z,96898.41
2023-05-07T03:30:41.071Z,96897.09
2023-05-07T03:33:29.432Z,96896.16
2023-05-07T03:36:18.921Z,96897.75
2023-05-07T03:39:08.928Z,96903.75
2023-05-07T03:42:01.811Z,96899.16
2023-05-07T03:44:51.394Z,96902.66
2023-05-07T03:47:40.207Z,96905.03
2023-05-07T03:50:30.747Z,96905.34
2023-05-07T03:53:19.293Z,96915.16
2023-05-07T03:56:09.687Z,96905.78
2023-05-07T03:59:00.994Z,96909.47
2023-05-07T04:01:49.741Z,96906.59
2023-05-07T04:04:40.347Z,96904.03
2023-05-07T04:07:29.775Z,96918.31
2023-05-07T04:10:18.650Z,96915.59
2023-05-07T04:13:11.023Z,96925.00
2023-05-07T04:16:01.045Z,96926.59
2023-05-07T04:18:50.504Z,96930.38
2023-05-07T04:21:39.269Z,96937.00
2023-05-07T04:24:27.735Z,96935.91
2023-05-07T04:27:16.774Z,96937.81
2023-05-07T04:30:08.072Z,96930.53
2023-05-07T04:33:00.275Z,96932.72
2023-05-07T04:35:51.452Z,96926.66
2023-05-07T04:38:40.085Z,96936.66
2023-05-07T04:41:28.712Z,96937.44
2023-05-07T04:44:17.835Z,96938.84
2023-05-07T04:47:08.692Z,96932.84
2023-05-07T04:49:57.294Z,96935.84
2023-05-07T04:52:46.293Z,96937.25
2023-05-07T04:55:35.455Z,96931.25
2023-05-07T04:58:24.300Z,96940.44
2023-05-07T05:01:12.789Z,96935.34
2023-05-07T05:04:03.609Z,96933.44
2023-05-07T05:06:52.218Z,96932.84
2023-05-07T05:09:40.624Z,96941.53
2023-05-07T05:12:29.689Z,96939.84
2023-05-07T05:15:18.405Z,96943.19
2023-05-07T05:18:06.994Z,96947.78
2023-05-07T05:20:56.971Z,96958.44
2023-05-07T05:23:45.898Z,96952.91
2023-05-07T05:26:35.461Z,96958.28
2023-05-07T05:29:24.724Z,96959.91
2023-05-07T05:32:13.082Z,96957.06
2023-05-07T05:35:02.076Z,96958.03
2023-05-07T05:37:52.761Z,96962.81
2023-05-07T05:40:41.502Z,96952.38
2023-05-07T05:43:30.075Z,96951.75
2023-05-07T05:46:18.680Z,96953.19
2023-05-07T05:49:07.157Z,96954.16
2023-05-07T05:51:56.848Z,96943.56
2023-05-07T05:54:48.321Z,96944.81
2023-05-07T05:57:36.991Z,96940.75
2023-05-07T06:00:25.667Z,96932.53
2023-05-07T06:03:21.778Z,96935.06
2023-05-07T06:06:10.393Z,96940.34
2023-05-07T06:08:58.795Z,96932.91
2023-05-07T06:11:55.616Z,96939.06
2023-05-07T06:14:45.106Z,96937.34
2023-05-07T06:17:34.113Z,96949.72
2023-05-07T06:20:22.558Z,96951.00
2023-05-07T06:23:12.165Z,96953.53
2023-05-07T06:26:00.573Z,96945.59
2023-05-07T06:28:55.782Z,96955.31
2023-05-07T06:31:45.322Z,96950.72
2023-05-07T06:34:33.748Z,96970.09
2023-05-07T06:37:22.134Z,96968.34
2023-05-07T06:40:20.806Z,96966.59
2023-05-07T06:43:11.006Z,96965.63
2023-05-07T06:46:18.566Z,96961.66
2023-05-07T06:49:07.168Z,96961.81
2023-05-07T06:51:56.543Z,96965.16
2023-05-07T06:54:45.318Z,96964.34
2023-05-07T06:57:37.322Z,96975.66
2023-05-07T07:00:26.101Z,96974.81
2023-05-07T07:03:18.789Z,96981.47
2023-05-07T07:06:08.278Z,96983.69
2023-05-07T07:08:56.790Z,96981.16
2023-05-07T07:11:45.272Z,96984.31
2023-05-07T07:14:33.742Z,96979.22
2023-05-07T07:17:22.144Z,96981.09
2023-05-07T07:20:13.203Z,96981.22
2023-05-07T07:23:02.886Z,96981.94
2023-05-07T07:25:51.393Z,96985.44
2023-05-07T07:28:45.609Z,96985.34
2023-05-07T07:31:36.539Z,96984.69
2023-05-07T07:34:25.031Z,96986.94
2023-05-07T07:37:14.819Z,96984.00
2023-05-07T07:40:04.861Z,96981.72
2023-05-07T07:42:55.121Z,96983.56
2023-05-07T07:45:44.937Z,96986.06
2023-05-07T07:48:33.476Z,96983.16
2023-05-07T07:51:22.234Z,96985.44
2023-05-07T07:54:14.193Z,96986.81
2023-05-07T07:57:03.410Z,96985.03
2023-05-07T07:59:54.419Z,96991.00
2023-05-07T08:02:43.216Z,96986.75
2023-05-07T08:05:35.487Z,96981.38
2023-05-07T08:08:25.029Z,96984.22
2023-05-07T08:11:16.711Z,96990.00
2023-05-07T08:14:05.940Z,96986.44
2023-05-07T08:16:54.929Z,96986.84
2023-05-07T08:19:44.145Z,96986.06
2023-05-07T08:22:36.364Z,96990.16
2023-05-07T08:25:25.157Z,96994.47
2023-05-07T08:28:15.016Z,96996.41
2023-05-07T08:31:03.670Z,96994.38
2023-05-07T08:33:56.692Z,96988.19
2023-05-07T08:36:45.150Z,96986.16
2023-05-07T08:39:36.747Z,96991.91
2023-05-07T08:42:29.572Z,96992.50
2023-05-07T08:45:20.273Z,96996.47
2023-05-07T08:48:12.295Z,96996.78
2023-05-07T08:51:01.093Z,97003.03
2023-05-07T08:53:50.890Z,97005.75
2023-05-07T08:56:45.254Z,97000.09
2023-05-07T08:59:33.774Z,96993.59
2023-05-07T09:02:23.667Z,96994.50
2023-05-07T09:05:12.338Z,96989.94
2023-05-07T09:08:01.475Z,96990.84
2023-05-07T09:10:50.463Z,96991.97
2023-05-07T09:13:39.918Z,97001.59
2023-05-07T09:16:28.694Z,96991.25
2023-05-07T09:19:24.804Z,96990.34
2023-05-07T09:22:14.644Z,96990.75
2023-05-07T09:25:13.357Z,96988.50
2023-05-07T09:28:03.439Z,96976.56
2023-05-07T09:30:52.302Z,96982.97
2023-05-07T09:33:42.311Z,96994.50
2023-05-07T09:36:34.131Z,96980.47
2023-05-07T09:39:23.178Z,96985.84
2023-05-07T09:42:12.516Z,96986.72
2023-05-07T09:45:02.085Z,96988.66
2023-05-07T09:47:58.522Z,96991.47
2023-05-07T09:50:51.394Z,96989.00
2023-05-07T09:53:44.223Z,96986.91
2023-05-07T09:56:34.335Z,96984.78
2023-05-07T09:59:23.798Z,96986.16
2023-05-07T10:02:12.565Z,96981.81
2023-05-07T10:05:08.444Z,96977.50
2023-05-07T10:07:58.326Z,96982.28
2023-05-07T10:10:49.287Z,96975.84
2023-05-07T10:13:42.199Z,96976.22
2023-05-07T10:16:33.715Z,96976.72
2023-05-07T10:19:22.268Z,96977.03
2023-05-07T10:22:16.171Z,96974.91
2023-05-07T10:25:09.366Z,96978.22
2023-05-07T10:28:03.523Z,96977.94
2023-05-07T10:31:03.465Z,96982.69
2023-05-07T10:33:59.119Z,96971.81
2023-05-07T10:36:48.519Z,96981.31
2023-05-07T10:39:37.443Z,96979.88
2023-05-07T10:42:26.250Z,96973.88
2023-05-07T10:45:18.576Z,96975.34
2023-05-07T10:48:28.718Z,96971.44
2023-05-07T10:51:23.167Z,96966.53
2023-05-07T10:54:24.778Z,96964.78
2023-05-07T10:57:37.788Z,96965.66
2023-05-07T11:00:47.939Z,96967.38
2023-05-07T11:04:15.222Z,96957.72
2023-05-07T11:07:26.234Z,96952.84
2023-05-07T11:10:17.735Z,96961.88
2023-05-07T11:13:19.611Z,96962.16
2023-05-07T11:16:21.013Z,96967.66
2023-05-07T11:19:12.680Z,96956.13
2023-05-07T11:22:09.472Z,96965.78
2023-05-07T11:25:04.104Z,96960.34
2023-05-07T11:27:52.792Z,96957.22
2023-05-07T11:30:43.979Z,96949.50
2023-05-07T11:33:37.069Z,96950.06
2023-05-07T11:36:28.435Z,96950.16
2023-05-07T11:39:27.785Z,96948.53
2023-05-07T11:42:30.007Z,96954.78
2023-05-07T11:45:25.735Z,96953.88
2023-05-07T11:48:14.705Z,96945.44
2023-05-07T11:51:06.637Z,96945.03
2023-05-07T11:53:55.272Z,96948.84
2023-05-07T11:56:43.586Z,96951.34
2023-05-07T11:59:31.955Z,96953.19
2023-05-07T12:02:20.392Z,96951.91
2023-05-07T12:05:09.350Z,96953.13
2023-05-07T12:08:00.196Z,96944.59
2023-05-07T12:10:50.989Z,96944.06
2023-05-07T12:13:39.587Z,96953.63
2023-05-07T12:16:28.298Z,96940.31
2023-05-07T12:19:16.933Z,96947.22
2023-05-07T12:22:05.779Z,96942.84
2023-05-07T12:25:00.703Z,96945.91
2023-05-07T12:27:53.815Z,96942.59
2023-05-07T12:30:42.327Z,96939.69
2023-05-07T12:33:32.042Z,96933.06
2023-05-07T12:36:22.150Z,96931.25
2023-05-07T12:39:11.014Z,96926.69
2023-05-07T12:42:01.877Z,96929.53
2023-05-07T12:44:50.687Z,96928.16
2023-05-07T12:47:39.178Z,96926.25
2023-05-07T12:50:27.636Z,96917.66
2023-05-07T12:53:16.162Z,96918.66
2023-05-07T12:56:04.911Z,96914.16
2023-05-07T12:58:59.494Z,96913.19
2023-05-07T13:01:48.216Z,96907.75
2023-05-07T13:04:37.077Z,96905.88
2023-05-07T13:07:27.750Z,96899.41
2023-05-07T13:10:17.071Z,96901.34
2023-05-07T13:13:05.838Z,96891.69
2023-05-07T13:15:55.648Z,96898.75
2023-05-07T13:18:44.912Z,96891.78
2023-05-07T13:21:33.869Z,96895.91
2023-05-07T13:24:22.249Z,96897.34
2023-05-07T13:27:10.669Z,96895.75
2023-05-07T13:29:59.100Z,96891.19
2023-05-07T13:32:49.039Z,96891.31
2023-05-07T13:35:37.588Z,96892.06
2023-05-07T13:38:26.032Z,96892.06
2023-05-07T13:41:15.304Z,96883.56
2023-05-07T13:44:03.783Z,96888.44
2023-05-07T13:46:52.277Z,96892.25
2023-05-07T13:49:42.060Z,96887.66
2023-05-07T13:52:30.468Z,96884.53
2023-05-07T13:55:19.656Z,96889.25
2023-05-07T13:58:08.003Z,96886.03
2023-05-07T14:00:56.423Z,96894.72
2023-05-07T14:03:44.955Z,96896.03
2023-05-07T14:06:34.779Z,96902.22
2023-05-07T14:09:23.150Z,96897.03
2023-05-07T14:12:11.584Z,96890.19
2023-05-07T14:15:00.135Z,96885.16
2023-05-07T14:17:48.921Z,96891.78
2023-05-07T14:20:38.699Z,96894.16
2023-05-07T14:23:28.809Z,96900.38
2023-05-07T14:26:17.228Z,96889.03
2023-05-07T14:29:05.672Z,96894.78
2023-05-07T14:31:54.037Z,96887.66
2023-05-07T14:34:42.438Z,96891.56
2023-05-07T14:37:30.842Z,96896.38
2023-05-07T14:40:20.601Z,96896.44
2023-05-07T14:43:09.034Z,96890.47
2023-05-07T14:45:57.448Z,96893.94
2023-05-07T14:48:47.014Z,96900.34
2023-05-07T14:51:35.414Z,96900.13
2023-05-07T14:54:23.833Z,96897.03
2023-05-07T14:57:15.752Z,96896.38
2023-05-07T15:00:06.045Z,96904.25
2023-05-07T15:02:54.563Z,96903.16
2023-05-07T15:05:43.550Z,96909.50
2023-05-07T15:08:31.898Z,96896.53
2023-05-07T15:11:20.288Z,96897.75
2023-05-07T15:14:10.177Z,96902.13
2023-05-07T15:16:58.507Z,96909.81
2023-05-07T15:19:46.881Z,96906.19
2023-05-07T15:22:37.066Z,96907.34
2023-05-07T15:25:25.507Z,96903.78
2023-05-07T15:28:13.908Z,96902.38
2023-05-07T15:31:03.631Z,96901.72
2023-05-07T15:33:52.926Z,96901.41
2023-05-07T15:36:41.348Z,96899.78
2023-05-07T15:39:29.778Z,96897.69
2023-05-07T15:42:18.201Z,96899.78
2023-05-07T15:45:07.921Z,96897.16
2023-05-07T15:47:57.739Z,96901.00
2023-05-07T15:50:46.670Z,96900.41
2023-05-07T15:53:35.755Z,96902.91
2023-05-07T15:56:25.299Z,96900.09
2023-05-07T15:59:15.473Z,96899.31
2023-05-07T16:02:03.936Z,96904.88
2023-05-07T16:04:53.696Z,96898.25
2023-05-07T16:07:44.173Z,96897.94
2023-05-07T16:10:32.611Z,96893.66
2023-05-07T16:13:21.178Z,96894.63
2023-05-07T16:16:09.814Z,96892.44
2023-05-07T16:18:58.290Z,96894.16
2023-05-07T16:21:48.284Z,96897.13
2023-05-07T16:24:36.729Z,96894.28
2023-05-07T16:27:25.221Z,96885.16
2023-05-07T16:30:14.299Z,96887.88
2023-05-07T16:33:02.783Z,96888.44
2023-05-07T16:35:54.528Z,96890.13
2023-05-07T16:38:44.400Z,96888.88
2023-05-07T16:41:32.843Z,96886.97
2023-05-07T16:44:21.382Z,96890.25
2023-05-07T16:47:09.804Z,96898.91
2023-05-07T16:49:58.980Z,96896.41
2023-05-07T16:52:47.438Z,96902.09
2023-05-07T16:55:39.437Z,96900.56
2023-05-07T16:58:28.339Z,96899.75
2023-05-07T17:01:18.943Z,96908.31
2023-05-07T17:04:07.426Z,96905.69
2023-05-07T17:06:57.813Z,96916.22
2023-05-07T17:09:46.241Z,96916.41
2023-05-07T17:12:37.685Z,96916.31
2023-05-07T17:15:26.369Z,96918.66
2023-05-07T17:18:15.373Z,96923.41
2023-05-07T17:21:03.900Z,96929.38
2023-05-07T17:23:52.254Z,96934.41
2023-05-07T17:26:43.118Z,96935.94
2023-05-07T17:29:34.080Z,96943.53
2023-05-07T17:32:22.570Z,96938.09
2023-05-07T17:35:11.240Z,96935.31
2023-05-07T17:37:59.678Z,96941.84
2023-05-07T17:40:48.526Z,96936.38
2023-05-07T17:43:36.928Z,96938.50
2023-05-07T17:46:26.806Z,96943.59
2023-05-07T17:49:16.544Z,96946.69
2023-05-07T17:52:05.204Z,96948.47
2023-05-07T17:54:53.565Z,96945.38
2023-05-07T17:57:41.931Z,96955.16
2023-05-07T18:00:30.490Z,96962.31
2023-05-07T18:03:20.527Z,96962.50
2023-05-07T18:06:10.200Z,96971.13
2023-05-07T18:08:58.802Z,96971.59
2023-05-07T18:11:47.199Z,96968.34
2023-05-07T18:14:35.700Z,96978.31
2023-05-07T18:17:26.408Z,96965.13
2023-05-07T18:20:16.481Z,96976.16
2023-05-07T18:23:05.030Z,96967.66
2023-05-07T18:25:53.586Z,96975.13
2023-05-07T18:28:42.147Z,96978.84
2023-05-07T18:31:30.566Z,96979.44
2023-05-07T18:34:19.054Z,96980.53
2023-05-07T18:37:08.799Z,96985.22
2023-05-07T18:39:57.125Z,96986.38
2023-05-07T18:42:45.588Z,96989.16
2023-05-07T18:45:34.813Z,96990.38
2023-05-07T18:48:23.210Z,96997.22
2023-05-07T18:51:12.760Z,96999.06
2023-05-07T18:54:03.325Z,96997.97
2023-05-07T18:56:52.030Z,97000.81
2023-05-07T18:59:40.475Z,97009.34
2023-05-07T19:02:28.846Z,97011.16
2023-05-07T19:05:18.446Z,97008.47
2023-05-07T19:08:07.196Z,97009.25
2023-05-07T19:10:57.715Z,97002.94
2023-05-07T19:13:46.121Z,97014.72
2023-05-07T19:16:34.534Z,97012.81
2023-05-07T19:19:22.963Z,97023.47
2023-05-07T19:22:11.479Z,97022.38
2023-05-07T19:24:59.888Z,97030.97
2023-05-07T19:27:50.945Z,97029.41
2023-05-07T19:30:40.780Z,97035.41
2023-05-07T19:33:29.899Z,97043.81
2023-05-07T19:36:18.396Z,97037.81
2023-05-07T19:39:06.783Z,97046.66
2023-05-07T19:41:55.189Z,97055.25
2023-05-07T19:44:44.946Z,97057.97
2023-05-07T19:47:33.624Z,97058.53
2023-05-07T19:50:22.285Z,97075.88
2023-05-07T19:53:10.882Z,97069.75
2023-05-07T19:56:04.513Z,97074.16
2023-05-07T19:58:53.079Z,97079.47
2023-05-07T20:01:42.906Z,97079.25
2023-05-07T20:04:33.566Z,97089.19
2023-05-07T20:07:21.893Z,97089.53
2023-05-07T20:10:11.048Z,97094.50
2023-05-07T20:12:59.671Z,97099.06
2023-05-07T20:15:48.502Z,97095.31
2023-05-07T20:18:38.222Z,97099.25
2023-05-07T20:21:26.869Z,97104.56
2023-05-07T20:24:15.279Z,97107.38
2023-05-07T20:27:04.923Z,97111.25
2023-05-07T20:29:53.599Z,97105.91
2023-05-07T20:32:42.121Z,97106.78
2023-05-07T20:35:32.232Z,97107.94
2023-05-07T20:38:20.934Z,97116.97
2023-05-07T20:41:10.634Z,97115.38
2023-05-07T20:44:00.411Z,97120.81
2023-05-07T20:46:48.825Z,97121.72
2023-05-07T20:49:37.220Z,97128.50
2023-05-07T20:52:27.004Z,97130.78
2023-05-07T20:55:15.594Z,97125.19
2023-05-07T20:58:03.940Z,97128.94
2023-05-07T21:00:52.783Z,97136.59
2023-05-07T21:03:41.399Z,97138.19
2023-05-07T21:06:30.081Z,97147.03
2023-05-07T21:09:19.905Z,97146.66
2023-05-07T21:12:08.395Z,97140.47
2023-05-07T21:14:58.053Z,97147.25
2023-05-07T21:17:46.514Z,97153.78
2023-05-07T21:20:35.037Z,97154.53
2023-05-07T21:23:23.402Z,97143.59
2023-05-07T21:26:18.914Z,97147.09
2023-05-07T21:29:08.824Z,97145.66
2023-05-07T21:31:57.284Z,97149.47
2023-05-07T21:34:46.657Z,97148.09
2023-05-07T21:37:35.011Z,97153.16
2023-05-07T21:40:23.373Z,97159.91
2023-05-07T21:43:13.102Z,97157.91
2023-05-07T21:46:03.749Z,97159.16
2023-05-07T21:48:52.121Z,97157.84
2023-05-07T21:51:40.662Z,97162.59
2023-05-07T21:54:29.047Z,97160.34
2023-05-07T21:57:17.567Z,97161.00
2023-05-07T22:00:09.219Z,97164.66
2023-05-07T22:02:58.476Z,97159.09
2023-05-07T22:05:48.083Z,97159.44
2023-05-07T22:08:38.108Z,97164.19
2023-05-07T22:11:26.659Z,97168.03
2023-05-07T22:14:15.032Z,97166.78
2023-05-07T22:17:04.774Z,97164.19
2023-05-07T22:19:53.267Z,97169.63
2023-05-07T22:22:51.232Z,97175.78
2023-05-07T22:25:40.517Z,97174.06
2023-05-07T22:28:28.907Z,97175.97
2023-05-07T22:31:17.319Z,97179.88
2023-05-07T22:34:07.098Z,97178.31
2023-05-07T22:36:55.448Z,97184.19
2023-05-07T22:39:43.876Z,97181.47
2023-05-07T22:42:32.255Z,97179.25
2023-05-07T22:45:21.146Z,97184.97
2023-05-07T22:48:09.952Z,97188.22
2023-05-07T22:50:59.742Z,97184.25
2023-05-07T22:53:48.137Z,97181.66
2023-05-07T22:56:36.538Z,97188.22
2023-05-07T22:59:25.000Z,97188.00
2023-05-07T23:02:13.487Z,97193.75
2023-05-07T23:05:02.184Z,97194.69
2023-05-07T23:07:52.179Z,97192.94
2023-05-07T23:10:40.589Z,97187.50
2023-05-07T23:13:28.974Z,97190.56
2023-05-07T23:16:17.340Z,97185.38
2023-05-07T23:19:05.744Z,97184.72
2023-05-07T23:21:54.096Z,97191.59
2023-05-07T23:24:44.089Z,97185.66
2023-05-07T23:27:32.474Z,97194.75
2023-05-07T23:30:21.094Z,97198.63
2023-05-07T23:33:09.586Z,97193.81
2023-05-07T23:36:00.993Z,97191.16
2023-05-07T23:38:49.338Z,97191.94
2023-05-07T23:41:39.043Z,97182.56
2023-05-07T23:44:27.408Z,97186.88
2023-05-07T23:47:15.897Z,97185.94
2023-05-07T23:50:04.409Z,97192.66
2023-05-07T23:52:52.739Z,97189.47
2023-05-07T23:55:41.177Z,97185.19
2023-05-07T23:58:30.937Z,97192.38
